createdAt,value
2022-07-26T00:02:28.579Z,100228.94
2022-07-26T00:09:16.986Z,100212.00
2022-07-26T00:16:03.829Z,100213.47
2022-07-26T00:22:49.551Z,100221.94
2022-07-26T00:29:37.890Z,100204.41
2022-07-26T00:36:23.517Z,100244.91
2022-07-26T00:43:09.089Z,100255.69
2022-07-26T00:49:57.245Z,100266.19
2022-07-26T00:56:43.503Z,100273.25
2022-07-26T01:03:36.495Z,100238.69
2022-07-26T01:10:28.173Z,100280.94
2022-07-26T01:17:14.116Z,100274.16
2022-07-26T01:24:02.610Z,100284.75
2022-07-26T01:30:48.098Z,100283.09
2022-07-26T01:37:33.721Z,100283.50
2022-07-26T01:44:23.009Z,100275.16
2022-07-26T01:51:08.864Z,100282.47
2022-07-26T01:57:54.996Z,100284.13
2022-07-26T02:04:55.569Z,100277.69
2022-07-26T02:11:41.037Z,100293.41
2022-07-26T02:18:27.071Z,100285.41
2022-07-26T02:25:15.301Z,100278.66
2022-07-26T02:32:01.919Z,100247.66
2022-07-26T02:38:47.765Z,100269.78
2022-07-26T03:06:18.092Z,100284.84
2022-07-26T03:13:03.716Z,100289.66
2022-07-26T03:19:49.237Z,100296.09
2022-07-26T03:26:37.365Z,100282.59
2022-07-26T03:33:23.314Z,100288.66
2022-07-26T03:40:11.450Z,100285.50
2022-07-26T03:47:00.014Z,100266.28
2022-07-26T03:53:46.229Z,100254.69
2022-07-26T04:00:31.936Z,100306.81
2022-07-26T04:07:20.163Z,100296.34
2022-07-26T04:14:07.874Z,100320.03
2022-07-26T04:20:53.672Z,100333.31
2022-07-26T04:27:41.822Z,100328.44
2022-07-26T04:34:27.277Z,100307.31
2022-07-26T04:41:12.744Z,100348.56
2022-07-26T04:48:01.093Z,100347.09
2022-07-26T04:54:46.682Z,100355.56
2022-07-26T05:01:32.319Z,100361.19
2022-07-26T05:08:20.627Z,100358.41
2022-07-26T05:15:06.919Z,100364.41
2022-07-26T05:22:00.081Z,100378.81
2022-07-26T05:28:51.741Z,100275.66
2022-07-26T05:35:37.350Z,100389.25
2022-07-26T05:42:22.704Z,100383.28
2022-07-26T05:49:11.695Z,100352.41
2022-07-26T05:55:57.172Z,100386.91
2022-07-26T06:02:42.889Z,100375.66
2022-07-26T06:09:31.365Z,100374.44
2022-07-26T06:16:17.669Z,100378.84
2022-07-26T06:23:03.824Z,100392.09
2022-07-26T06:29:52.729Z,100385.28
2022-07-26T06:36:38.756Z,100404.16
2022-07-26T06:43:24.953Z,100333.13
2022-07-26T06:50:14.465Z,100396.09
2022-07-26T06:57:02.253Z,100404.94
2022-07-26T07:03:47.999Z,100401.34
2022-07-26T07:10:36.202Z,100401.28
2022-07-26T07:17:23.715Z,100405.66
2022-07-26T07:24:10.409Z,100402.81
2022-07-26T07:30:59.001Z,100391.88
2022-07-26T07:37:53.854Z,100399.91
2022-07-26T07:44:41.649Z,100346.50
2022-07-26T07:51:30.027Z,100381.69
2022-07-26T07:58:15.764Z,100386.03
2022-07-26T08:05:11.350Z,100359.91
2022-07-26T08:12:02.513Z,100378.34
2022-07-26T08:18:56.911Z,100392.84
2022-07-26T08:25:57.822Z,100404.50
2022-07-26T08:32:47.480Z,100402.91
2022-07-26T08:39:33.138Z,100414.06
2022-07-26T08:46:24.333Z,100415.78
2022-07-26T08:53:13.934Z,100381.97
2022-07-26T09:00:18.917Z,100416.31
2022-07-26T09:07:08.767Z,100417.44
2022-07-26T09:14:00.693Z,100414.88
2022-07-26T09:20:50.711Z,100423.28
2022-07-26T09:27:40.008Z,100423.28
2022-07-26T09:34:30.523Z,100419.63
2022-07-26T09:41:23.529Z,100421.25
2022-07-26T09:48:09.775Z,100420.31
2022-07-26T09:54:58.402Z,100426.84
2022-07-26T10:01:44.872Z,100424.16
2022-07-26T10:08:31.510Z,100427.69
2022-07-26T10:15:46.802Z,100353.41
2022-07-26T10:22:34.694Z,100416.00
2022-07-26T10:29:30.038Z,100424.47
2022-07-26T10:36:31.349Z,100428.47
2022-07-26T10:50:36.315Z,100420.97
2022-07-26T10:57:24.402Z,100412.13
2022-07-26T11:04:21.110Z,100408.06
2022-07-26T11:11:06.974Z,100420.97
2022-07-26T11:17:55.043Z,100418.03
2022-07-26T11:24:43.653Z,100403.09
2022-07-26T11:31:50.627Z,100349.47
2022-07-26T11:38:57.667Z,100391.59
2022-07-26T11:45:55.661Z,100389.94
2022-07-26T11:52:41.469Z,100404.09
2022-07-26T11:59:33.882Z,100399.47
2022-07-26T12:06:22.494Z,100391.53
2022-07-26T12:13:16.576Z,100384.47
2022-07-26T12:20:15.185Z,100380.72
2022-07-26T12:27:09.707Z,100383.34
2022-07-26T12:33:55.414Z,100382.38
2022-07-26T12:40:47.496Z,100370.34
2022-07-26T12:47:33.534Z,100369.53
2022-07-26T12:54:19.286Z,100370.19
2022-07-26T13:01:07.557Z,100342.28
2022-07-26T13:07:54.281Z,100345.31
2022-07-26T13:14:41.089Z,100342.34
2022-07-26T13:21:33.203Z,100336.00
2022-07-26T13:28:19.505Z,100340.22
2022-07-26T13:35:05.569Z,100332.16
2022-07-26T13:41:53.878Z,100327.81
2022-07-26T13:48:48.074Z,100324.53
2022-07-26T13:55:44.942Z,100329.34
2022-07-26T14:02:33.682Z,100327.56
2022-07-26T14:09:19.716Z,100342.13
2022-07-26T14:16:05.318Z,100343.91
2022-07-26T14:22:56.517Z,100333.09
2022-07-26T14:29:42.011Z,100346.97
2022-07-26T14:36:27.529Z,100332.97
2022-07-26T14:43:15.802Z,100332.31
2022-07-26T14:50:06.573Z,100337.47
2022-07-26T14:56:52.568Z,100337.56
2022-07-26T15:03:40.821Z,100274.78
2022-07-26T15:10:32.117Z,100319.47
2022-07-26T15:17:17.677Z,100330.72
2022-07-26T15:24:05.943Z,100278.63
2022-07-26T15:30:51.554Z,100226.53
2022-07-26T15:37:38.128Z,100309.34
2022-07-26T15:44:26.281Z,100304.44
2022-07-26T15:51:11.878Z,100313.84
2022-07-26T15:57:57.542Z,100309.84
2022-07-26T16:04:45.885Z,100295.41
2022-07-26T16:11:33.713Z,100299.25
2022-07-26T16:18:19.263Z,100302.25
2022-07-26T16:25:08.656Z,100286.41
2022-07-26T16:31:56.287Z,100241.06
2022-07-26T16:38:41.814Z,100299.63
2022-07-26T16:45:30.184Z,100276.88
2022-07-26T16:52:15.859Z,100277.41
2022-07-26T16:59:01.814Z,100281.91
2022-07-26T17:05:50.072Z,100274.63
2022-07-26T17:12:36.270Z,100274.31
2022-07-26T17:19:22.021Z,100286.44
2022-07-26T17:26:10.831Z,100272.25
2022-07-26T17:32:56.346Z,100283.22
2022-07-26T17:39:51.950Z,100238.78
2022-07-26T17:46:40.872Z,100273.84
2022-07-26T17:53:34.166Z,100281.63
2022-07-26T18:00:22.788Z,100273.38
2022-07-26T18:07:11.005Z,100270.09
2022-07-26T18:13:56.513Z,100297.09
2022-07-26T18:20:42.043Z,100297.16
2022-07-26T18:27:30.649Z,100290.94
2022-07-26T18:34:16.209Z,100310.25
2022-07-26T18:41:02.212Z,100315.56
2022-07-26T18:47:51.195Z,100301.09
2022-07-26T18:54:40.117Z,100319.59
2022-07-26T19:01:25.854Z,100318.38
2022-07-26T19:08:14.226Z,100322.75
2022-07-26T19:15:00.166Z,100341.09
2022-07-26T19:21:49.256Z,100311.44
2022-07-26T19:28:37.492Z,100359.25
2022-07-26T19:35:23.301Z,100331.50
2022-07-26T19:42:09.959Z,100387.19
2022-07-26T19:48:58.594Z,100395.72
2022-07-26T19:55:44.162Z,100388.63
2022-07-26T20:02:29.997Z,100410.69
2022-07-26T20:09:18.382Z,100407.09
2022-07-26T20:16:03.941Z,100414.41
2022-07-26T20:22:49.694Z,100408.88
2022-07-26T20:29:38.087Z,100407.25
2022-07-26T20:36:23.596Z,100426.59
2022-07-26T20:43:09.077Z,100429.03
2022-07-26T20:50:02.646Z,100389.91
2022-07-26T20:56:48.771Z,100444.44
2022-07-26T21:03:34.815Z,100440.41
2022-07-26T21:10:23.910Z,100440.50
2022-07-26T21:17:12.052Z,100457.13
2022-07-26T21:23:57.934Z,100447.97
2022-07-26T21:30:46.405Z,100420.56
2022-07-26T21:37:31.962Z,100457.03
2022-07-26T21:44:17.501Z,100455.44
2022-07-26T21:51:05.707Z,100460.75
2022-07-26T21:57:51.647Z,100468.88
2022-07-26T22:04:37.191Z,100471.72
2022-07-26T22:11:25.686Z,100473.41
2022-07-26T22:18:11.634Z,100361.72
2022-07-26T22:24:57.080Z,100403.03
2022-07-26T22:31:45.275Z,100473.66
2022-07-26T22:38:31.501Z,100468.47
2022-07-26T22:45:17.612Z,100425.63
2022-07-26T22:52:05.722Z,100458.94
2022-07-26T22:58:51.225Z,100456.16
2022-07-26T23:05:46.628Z,100452.88
2022-07-26T23:12:36.104Z,100460.28
2022-07-26T23:19:21.662Z,100472.75
2022-07-26T23:26:07.172Z,100486.44
2022-07-26T23:32:55.010Z,100475.97
2022-07-26T23:39:40.572Z,100480.44
2022-07-26T23:46:26.517Z,100472.81
2022-07-26T23:53:14.665Z,100474.78
